sensor_id;sensor_type;location;lat;lon;timestamp;pressure;altitude;pressure_sealevel;temperature;humidity
60852;BME280;48553;50.766;2.900;2022-11-15T00:00:24;100050.75;;;8.19;87.48
60852;BME280;48553;50.766;2.900;2022-11-15T00:03:26;100050.75;;;8.19;88.21
60852;BME280;48553;50.766;2.900;2022-11-15T00:06:27;100053.94;;;8.21;87.76
60852;BME280;48553;50.766;2.900;2022-11-15T00:09:27;100063.72;;;8.22;87.91
60852;BME280;48553;50.766;2.900;2022-11-15T00:12:28;100056.34;;;8.22;87.09
60852;BME280;48553;50.766;2.900;2022-11-15T00:15:28;100051.69;;;8.23;87.75
60852;BME280;48553;50.766;2.900;2022-11-15T00:18:30;100054.88;;;8.25;87.69
60852;BME280;48553;50.766;2.900;2022-11-15T00:21:31;100064.31;;;8.27;86.96
60852;BME280;48553;50.766;2.900;2022-11-15T00:24:31;100063.53;;;8.27;88.77
60852;BME280;48553;50.766;2.900;2022-11-15T00:27:31;100056.94;;;8.28;88.46
60852;BME280;48553;50.766;2.900;2022-11-15T00:30:32;100052.25;;;8.28;87.35
60852;BME280;48553;50.766;2.900;2022-11-15T00:33:33;100063.63;;;8.30;87.19
60852;BME280;48553;50.766;2.900;2022-11-15T00:36:33;100057.84;;;8.32;87.82
60852;BME280;48553;50.766;2.900;2022-11-15T00:39:34;100050.44;;;8.32;87.40
60852;BME280;48553;50.766;2.900;2022-11-15T00:42:35;100054.78;;;8.33;87.77
60852;BME280;48553;50.766;2.900;2022-11-15T00:45:35;100060.03;;;8.39;90.96
60852;BME280;48553;50.766;2.900;2022-11-15T00:48:36;100059.25;;;8.38;88.33
60852;BME280;48553;50.766;2.900;2022-11-15T00:51:37;100058.09;;;8.39;87.84
60852;BME280;48553;50.766;2.900;2022-11-15T00:54:38;100049.91;;;8.39;87.61
60852;BME280;48553;50.766;2.900;2022-11-15T00:57:38;100053.91;;;8.42;87.60
60852;BME280;48553;50.766;2.900;2022-11-15T01:00:39;100050.41;;;8.41;87.69
60852;BME280;48553;50.766;2.900;2022-11-15T01:03:41;100044.59;;;8.43;87.87
60852;BME280;48553;50.766;2.900;2022-11-15T01:06:41;100046.97;;;8.44;88.88
60852;BME280;48553;50.766;2.900;2022-11-15T01:09:42;100044.72;;;8.46;87.64
60852;BME280;48553;50.766;2.900;2022-11-15T01:12:42;100043.13;;;8.45;87.70
60852;BME280;48553;50.766;2.900;2022-11-15T01:15:43;100047.91;;;8.48;88.21
60852;BME280;48553;50.766;2.900;2022-11-15T01:18:44;100047.91;;;8.48;88.01
60852;BME280;48553;50.766;2.900;2022-11-15T01:21:44;100054.16;;;8.49;89.10
60852;BME280;48553;50.766;2.900;2022-11-15T01:24:45;100050.31;;;8.50;87.58
60852;BME280;48553;50.766;2.900;2022-11-15T01:27:45;100043.69;;;8.51;87.87
60852;BME280;48553;50.766;2.900;2022-11-15T01:30:46;100051.56;;;8.52;87.73
60852;BME280;48553;50.766;2.900;2022-11-15T01:33:47;100046.09;;;8.52;87.27
60852;BME280;48553;50.766;2.900;2022-11-15T01:36:48;100035.97;;;8.53;87.62
60852;BME280;48553;50.766;2.900;2022-11-15T01:39:48;100037.09;;;8.52;87.54
60852;BME280;48553;50.766;2.900;2022-11-15T01:42:49;100038.69;;;8.53;87.59
60852;BME280;48553;50.766;2.900;2022-11-15T01:45:56;100039.84;;;8.52;88.37
60852;BME280;48553;50.766;2.900;2022-11-15T01:49:02;100039.84;;;8.52;88.18
60852;BME280;48553;50.766;2.900;2022-11-15T01:52:04;100035.50;;;8.51;88.40
60852;BME280;48553;50.766;2.900;2022-11-15T01:58:06;100030.03;;;8.51;89.40
60852;BME280;48553;50.766;2.900;2022-11-15T02:01:07;100030.03;;;8.51;89.44
60852;BME280;48553;50.766;2.900;2022-11-15T02:04:12;100025.38;;;8.51;89.95
60852;BME280;48553;50.766;2.900;2022-11-15T02:07:17;100027.31;;;8.51;90.41
60852;BME280;48553;50.766;2.900;2022-11-15T02:10:21;100012.84;;;8.50;90.10
60852;BME280;48553;50.766;2.900;2022-11-15T02:13:22;100010.91;;;8.51;89.83
60852;BME280;48553;50.766;2.900;2022-11-15T02:20:24;100013.66;;;8.51;90.38
60852;BME280;48553;50.766;2.900;2022-11-15T02:33:38;99994.91;;;8.49;90.39
60852;BME280;48553;50.766;2.900;2022-11-15T02:40:06;99979.31;;;8.50;90.20
60852;BME280;48553;50.766;2.900;2022-11-15T02:43:12;99982.03;;;8.50;89.68
60852;BME280;48553;50.766;2.900;2022-11-15T02:46:51;99961.31;;;8.49;90.59
60852;BME280;48553;50.766;2.900;2022-11-15T02:50:14;99955.84;;;8.49;90.52
60852;BME280;48553;50.766;2.900;2022-11-15T02:53:16;99952.78;;;8.50;89.95
60852;BME280;48553;50.766;2.900;2022-11-15T02:56:16;99962.91;;;8.50;90.67
60852;BME280;48553;50.766;2.900;2022-11-15T03:02:36;99949.59;;;8.48;90.89
60852;BME280;48553;50.766;2.900;2022-11-15T03:12:35;99940.16;;;8.46;90.41
60852;BME280;48553;50.766;2.900;2022-11-15T03:15:43;99946.06;;;8.48;90.44
60852;BME280;48553;50.766;2.900;2022-11-15T03:19:35;99947.66;;;8.49;90.58
60852;BME280;48553;50.766;2.900;2022-11-15T03:22:19;99947.19;;;8.47;90.56
60852;BME280;48553;50.766;2.900;2022-11-15T03:25:23;99945.75;;;8.49;90.44
60852;BME280;48553;50.766;2.900;2022-11-15T03:28:47;99954.25;;;8.48;90.53
60852;BME280;48553;50.766;2.900;2022-11-15T03:31:56;99953.81;;;8.46;90.89
60852;BME280;48553;50.766;2.900;2022-11-15T03:35:02;99946.72;;;8.45;90.50
60852;BME280;48553;50.766;2.900;2022-11-15T03:38:14;99944.00;;;8.45;90.26
60852;BME280;48553;50.766;2.900;2022-11-15T03:41:31;99947.88;;;8.44;90.78
60852;BME280;48553;50.766;2.900;2022-11-15T03:44:44;99933.44;;;8.43;90.19
60852;BME280;48553;50.766;2.900;2022-11-15T03:47:53;99945.94;;;8.44;90.64
60852;BME280;48553;50.766;2.900;2022-11-15T03:50:55;99933.44;;;8.43;90.63
60852;BME280;48553;50.766;2.900;2022-11-15T03:53:56;99932.19;;;8.41;90.37
60852;BME280;48553;50.766;2.900;2022-11-15T03:56:56;99931.72;;;8.39;90.23
60852;BME280;48553;50.766;2.900;2022-11-15T03:59:57;99932.81;;;8.37;90.42
60852;BME280;48553;50.766;2.900;2022-11-15T04:02:57;99934.44;;;8.39;90.32
60852;BME280;48553;50.766;2.900;2022-11-15T04:05:58;99931.72;;;8.39;89.85
60852;BME280;48553;50.766;2.900;2022-11-15T04:08:58;99927.72;;;8.36;90.01
60852;BME280;48553;50.766;2.900;2022-11-15T04:11:58;99926.91;;;8.35;89.94
60852;BME280;48553;50.766;2.900;2022-11-15T04:15:03;99927.28;;;8.34;89.81
60852;BME280;48553;50.766;2.900;2022-11-15T04:18:07;99921.81;;;8.34;89.90
60852;BME280;48553;50.766;2.900;2022-11-15T04:21:08;99916.34;;;8.34;89.77
60852;BME280;48553;50.766;2.900;2022-11-15T04:24:27;99924.88;;;8.32;89.76
60852;BME280;48553;50.766;2.900;2022-11-15T04:27:27;99915.09;;;8.31;89.75
60852;BME280;48553;50.766;2.900;2022-11-15T04:30:28;99913.16;;;8.32;89.58
60852;BME280;48553;50.766;2.900;2022-11-15T04:33:28;99925.19;;;8.31;89.97
60852;BME280;48553;50.766;2.900;2022-11-15T04:36:28;99919.28;;;8.29;89.75
60852;BME280;48553;50.766;2.900;2022-11-15T04:39:48;99918.50;;;8.28;89.37
60852;BME280;48553;50.766;2.900;2022-11-15T04:42:48;99912.94;;;8.25;89.77
60852;BME280;48553;50.766;2.900;2022-11-15T04:45:49;99915.66;;;8.25;89.87
60852;BME280;48553;50.766;2.900;2022-11-15T04:48:49;99915.66;;;8.25;89.75
60852;BME280;48553;50.766;2.900;2022-11-15T04:51:50;99922.59;;;8.22;89.54
60852;BME280;48553;50.766;2.900;2022-11-15T04:54:50;99924.50;;;8.22;89.77
60852;BME280;48553;50.766;2.900;2022-11-15T04:58:01;99910.53;;;8.23;89.51
60852;BME280;48553;50.766;2.900;2022-11-15T05:01:12;99905.06;;;8.23;89.37
60852;BME280;48553;50.766;2.900;2022-11-15T05:04:14;99906.56;;;8.21;89.62
60852;BME280;48553;50.766;2.900;2022-11-15T05:07:21;99908.13;;;8.22;89.71
60852;BME280;48553;50.766;2.900;2022-11-15T05:10:21;99904.28;;;8.23;89.76
60852;BME280;48553;50.766;2.900;2022-11-15T05:13:22;99903.03;;;8.20;89.83
60852;BME280;48553;50.766;2.900;2022-11-15T05:16:22;99905.78;;;8.20;89.52
60852;BME280;48553;50.766;2.900;2022-11-15T05:19:22;99894.03;;;8.20;89.41
60852;BME280;48553;50.766;2.900;2022-11-15T05:22:23;99906.09;;;8.19;89.51
60852;BME280;48553;50.766;2.900;2022-11-15T05:25:24;99906.44;;;8.17;89.28
60852;BME280;48553;50.766;2.900;2022-11-15T05:28:24;99899.06;;;8.18;89.53
60852;BME280;48553;50.766;2.900;2022-11-15T05:31:26;99896.34;;;8.18;89.46
60852;BME280;48553;50.766;2.900;2022-11-15T05:34:27;99886.53;;;8.16;89.49
60852;BME280;48553;50.766;2.900;2022-11-15T05:37:28;99892.31;;;8.15;89.29
60852;BME280;48553;50.766;2.900;2022-11-15T05:40:29;99889.59;;;8.15;89.24
60852;BME280;48553;50.766;2.900;2022-11-15T05:43:32;99883.00;;;8.16;89.12
60852;BME280;48553;50.766;2.900;2022-11-15T05:46:34;99880.97;;;8.13;89.13
60852;BME280;48553;50.766;2.900;2022-11-15T05:49:37;99877.44;;;8.12;89.28
60852;BME280;48553;50.766;2.900;2022-11-15T05:52:39;99879.03;;;8.13;88.96
60852;BME280;48553;50.766;2.900;2022-11-15T05:55:39;99876.97;;;8.10;89.28
60852;BME280;48553;50.766;2.900;2022-11-15T05:58:41;99873.13;;;8.11;89.14
60852;BME280;48553;50.766;2.900;2022-11-15T06:01:42;99869.16;;;8.09;89.48
60852;BME280;48553;50.766;2.900;2022-11-15T06:04:42;99867.22;;;8.09;89.43
60852;BME280;48553;50.766;2.900;2022-11-15T06:07:43;99864.16;;;8.11;89.07
60852;BME280;48553;50.766;2.900;2022-11-15T06:10:44;99868.31;;;8.08;89.10
60852;BME280;48553;50.766;2.900;2022-11-15T06:13:44;99858.56;;;8.07;89.37
60852;BME280;48553;50.766;2.900;2022-11-15T06:16:45;99859.34;;;8.08;89.00
60852;BME280;48553;50.766;2.900;2022-11-15T06:19:45;99854.69;;;8.08;88.89
60852;BME280;48553;50.766;2.900;2022-11-15T06:22:45;99856.16;;;8.06;89.22
60852;BME280;48553;50.766;2.900;2022-11-15T06:25:46;99857.31;;;8.05;89.29
60852;BME280;48553;50.766;2.900;2022-11-15T06:28:46;99859.25;;;8.04;89.31
60852;BME280;48553;50.766;2.900;2022-11-15T06:31:47;99858.88;;;8.06;88.90
60852;BME280;48553;50.766;2.900;2022-11-15T06:34:47;99849.91;;;8.05;89.47
60852;BME280;48553;50.766;2.900;2022-11-15T06:37:48;99840.94;;;8.05;89.48
60852;BME280;48553;50.766;2.900;2022-11-15T06:40:48;99835.03;;;8.03;89.34
60852;BME280;48553;50.766;2.900;2022-11-15T06:43:48;99836.59;;;8.04;89.50
60852;BME280;48553;50.766;2.900;2022-11-15T06:46:49;99832.28;;;8.03;89.66
60852;BME280;48553;50.766;2.900;2022-11-15T06:49:49;99824.91;;;8.03;89.66
60852;BME280;48553;50.766;2.900;2022-11-15T06:52:49;99815.94;;;8.03;89.51
60852;BME280;48553;50.766;2.900;2022-11-15T06:55:50;99807.75;;;8.03;89.39
60852;BME280;48553;50.766;2.900;2022-11-15T06:58:50;99809.31;;;8.04;88.97
60852;BME280;48553;50.766;2.900;2022-11-15T07:01:51;99800.69;;;8.02;89.31
60852;BME280;48553;50.766;2.900;2022-11-15T07:04:51;99804.22;;;8.02;88.97
60852;BME280;48553;50.766;2.900;2022-11-15T07:07:53;99791.38;;;8.03;89.30
60852;BME280;48553;50.766;2.900;2022-11-15T07:10:54;99795.25;;;8.02;89.19
60852;BME280;48553;50.766;2.900;2022-11-15T07:13:54;99787.06;;;8.02;89.08
60852;BME280;48553;50.766;2.900;2022-11-15T07:16:55;99796.03;;;8.02;89.01
60852;BME280;48553;50.766;2.900;2022-11-15T07:19:55;99799.09;;;8.01;89.07
60852;BME280;48553;50.766;2.900;2022-11-15T07:23:02;99792.94;;;8.04;88.84
60852;BME280;48553;50.766;2.900;2022-11-15T07:26:03;99786.69;;;8.03;89.28
60852;BME280;48553;50.766;2.900;2022-11-15T07:29:04;99784.75;;;8.04;89.29
60852;BME280;48553;50.766;2.900;2022-11-15T07:32:04;99787.28;;;8.09;89.10
60852;BME280;48553;50.766;2.900;2022-11-15T07:35:04;99789.31;;;8.12;89.03
60852;BME280;48553;50.766;2.900;2022-11-15T07:38:05;99786.91;;;8.23;88.06
60852;BME280;48553;50.766;2.900;2022-11-15T07:41:06;99802.38;;;8.43;87.85
60852;BME280;48553;50.766;2.900;2022-11-15T07:44:07;99790.09;;;8.49;87.34
60852;BME280;48553;50.766;2.900;2022-11-15T07:47:07;99793.84;;;8.32;88.10
60852;BME280;48553;50.766;2.900;2022-11-15T07:50:08;99796.69;;;8.24;88.87
60852;BME280;48553;50.766;2.900;2022-11-15T07:53:09;99791.13;;;8.20;88.88
60852;BME280;48553;50.766;2.900;2022-11-15T07:56:11;99779.75;;;8.18;88.68
60852;BME280;48553;50.766;2.900;2022-11-15T07:59:12;99778.59;;;8.19;89.23
60852;BME280;48553;50.766;2.900;2022-11-15T08:02:12;99780.50;;;8.31;88.88
60852;BME280;48553;50.766;2.900;2022-11-15T08:05:12;99782.28;;;8.92;86.34
60852;BME280;48553;50.766;2.900;2022-11-15T08:08:13;99783.63;;;9.74;82.64
60852;BME280;48553;50.766;2.900;2022-11-15T08:11:13;99774.50;;;10.17;80.74
60852;BME280;48553;50.766;2.900;2022-11-15T08:14:13;99785.84;;;10.35;79.75
60852;BME280;48553;50.766;2.900;2022-11-15T08:17:14;99769.50;;;10.39;79.55
60852;BME280;48553;50.766;2.900;2022-11-15T08:20:14;99756.75;;;10.47;79.40
60852;BME280;48553;50.766;2.900;2022-11-15T08:23:15;99762.22;;;10.47;79.36
60852;BME280;48553;50.766;2.900;2022-11-15T08:26:15;99768.34;;;10.40;79.76
60852;BME280;48553;50.766;2.900;2022-11-15T08:29:16;99764.97;;;10.47;79.56
60852;BME280;48553;50.766;2.900;2022-11-15T08:32:17;99750.13;;;10.48;79.72
60852;BME280;48553;50.766;2.900;2022-11-15T08:35:18;99754.09;;;10.50;80.03
60852;BME280;48553;50.766;2.900;2022-11-15T08:38:19;99735.41;;;10.56;79.82
60852;BME280;48553;50.766;2.900;2022-11-15T08:41:25;99732.25;;;10.54;79.88
60852;BME280;48553;50.766;2.900;2022-11-15T08:44:26;99736.63;;;10.39;80.57
60852;BME280;48553;50.766;2.900;2022-11-15T08:47:27;99727.66;;;10.22;81.36
60852;BME280;48553;50.766;2.900;2022-11-15T08:50:27;99726.97;;;10.10;81.93
60852;BME280;48553;50.766;2.900;2022-11-15T08:53:28;99735.22;;;9.94;82.40
60852;BME280;48553;50.766;2.900;2022-11-15T08:56:28;99724.75;;;9.80;83.37
60852;BME280;48553;50.766;2.900;2022-11-15T08:59:29;99724.75;;;9.80;83.46
60852;BME280;48553;50.766;2.900;2022-11-15T09:02:29;99708.00;;;9.81;83.68
60852;BME280;48553;50.766;2.900;2022-11-15T09:05:29;99703.63;;;9.96;83.17
60852;BME280;48553;50.766;2.900;2022-11-15T09:08:30;99706.25;;;10.09;83.08
60852;BME280;48553;50.766;2.900;2022-11-15T09:11:31;99693.09;;;9.79;84.03
60852;BME280;48553;50.766;2.900;2022-11-15T09:14:31;99704.00;;;9.95;83.96
60852;BME280;48553;50.766;2.900;2022-11-15T09:17:32;99702.31;;;9.90;84.10
60852;BME280;48553;50.766;2.900;2022-11-15T09:20:32;99707.56;;;9.79;84.35
60852;BME280;48553;50.766;2.900;2022-11-15T09:23:33;99706.97;;;9.90;84.14
60852;BME280;48553;50.766;2.900;2022-11-15T09:26:33;99706.06;;;9.66;85.03
60852;BME280;48553;50.766;2.900;2022-11-15T09:29:34;99699.38;;;9.64;85.34
60852;BME280;48553;50.766;2.900;2022-11-15T09:32:34;99691.84;;;9.60;85.27
60852;BME280;48553;50.766;2.900;2022-11-15T09:35:36;99684.72;;;9.56;85.50
60852;BME280;48553;50.766;2.900;2022-11-15T09:38:36;99683.22;;;9.58;85.32
60852;BME280;48553;50.766;2.900;2022-11-15T09:48:42;99667.75;;;9.66;85.87
60852;BME280;48553;50.766;2.900;2022-11-15T09:51:51;99656.97;;;9.73;85.80
60852;BME280;48553;50.766;2.900;2022-11-15T09:54:53;99658.41;;;10.02;85.36
60852;BME280;48553;50.766;2.900;2022-11-15T09:58:00;99652.72;;;10.11;84.69
60852;BME280;48553;50.766;2.900;2022-11-15T10:01:08;99634.09;;;10.01;85.23
60852;BME280;48553;50.766;2.900;2022-11-15T10:04:11;99641.03;;;9.95;85.25
60852;BME280;48553;50.766;2.900;2022-11-15T10:07:22;99648.66;;;9.86;85.66
60852;BME280;48553;50.766;2.900;2022-11-15T10:10:38;99630.16;;;9.98;85.00
60852;BME280;48553;50.766;2.900;2022-11-15T10:13:45;99637.72;;;10.05;85.20
60852;BME280;48553;50.766;2.900;2022-11-15T10:23:02;99626.22;;;10.15;85.66
60852;BME280;48553;50.766;2.900;2022-11-15T10:26:09;99613.22;;;10.12;85.68
60852;BME280;48553;50.766;2.900;2022-11-15T10:29:11;99617.47;;;10.10;85.65
60852;BME280;48553;50.766;2.900;2022-11-15T10:32:13;99606.03;;;10.04;85.63
60852;BME280;48553;50.766;2.900;2022-11-15T10:35:29;99601.78;;;10.07;85.19
60852;BME280;48553;50.766;2.900;2022-11-15T10:38:29;99592.69;;;10.02;85.71
60852;BME280;48553;50.766;2.900;2022-11-15T10:41:32;99589.53;;;10.00;86.12
60852;BME280;48553;50.766;2.900;2022-11-15T10:44:41;99596.97;;;10.00;85.80
60852;BME280;48553;50.766;2.900;2022-11-15T10:47:43;99577.34;;;9.98;86.45
60852;BME280;48553;50.766;2.900;2022-11-15T10:50:45;99578.16;;;9.98;86.79
60852;BME280;48553;50.766;2.900;2022-11-15T10:53:46;99562.88;;;9.97;85.77
60852;BME280;48553;50.766;2.900;2022-11-15T10:56:53;99557.84;;;9.99;86.10
60852;BME280;48553;50.766;2.900;2022-11-15T10:59:57;99553.59;;;10.02;87.29
60852;BME280;48553;50.766;2.900;2022-11-15T11:03:00;99546.91;;;9.99;87.21
60852;BME280;48553;50.766;2.900;2022-11-15T11:06:15;99537.53;;;10.00;87.74
60852;BME280;48553;50.766;2.900;2022-11-15T11:09:36;99522.63;;;9.98;86.99
60852;BME280;48553;50.766;2.900;2022-11-15T11:12:36;99519.44;;;9.96;87.07
60852;BME280;48553;50.766;2.900;2022-11-15T11:15:37;99510.47;;;9.95;86.67
60852;BME280;48553;50.766;2.900;2022-11-15T11:25:03;99497.06;;;9.90;87.17
60852;BME280;48553;50.766;2.900;2022-11-15T11:35:35;99489.22;;;9.89;86.84
60852;BME280;48553;50.766;2.900;2022-11-15T11:38:31;99482.22;;;9.91;86.56
60852;BME280;48553;50.766;2.900;2022-11-15T11:44:52;99466.09;;;9.86;87.27
60852;BME280;48553;50.766;2.900;2022-11-15T11:48:28;99452.41;;;9.86;87.57
60852;BME280;48553;50.766;2.900;2022-11-15T11:51:50;99459.41;;;9.83;88.21
60852;BME280;48553;50.766;2.900;2022-11-15T11:55:16;99455.50;;;9.85;87.85
60852;BME280;48553;50.766;2.900;2022-11-15T11:58:40;99446.88;;;9.82;88.09
60852;BME280;48553;50.766;2.900;2022-11-15T12:01:43;99445.34;;;9.85;87.63
60852;BME280;48553;50.766;2.900;2022-11-15T12:04:48;99444.22;;;9.86;88.46
60852;BME280;48553;50.766;2.900;2022-11-15T12:07:53;99427.72;;;9.82;88.66
60852;BME280;48553;50.766;2.900;2022-11-15T12:11:09;99437.56;;;9.87;87.84
60852;BME280;48553;50.766;2.900;2022-11-15T12:14:21;99426.56;;;9.83;88.55
60852;BME280;48553;50.766;2.900;2022-11-15T12:17:29;99415.56;;;9.80;89.18
60852;BME280;48553;50.766;2.900;2022-11-15T12:20:38;99409.34;;;9.83;88.99
60852;BME280;48553;50.766;2.900;2022-11-15T12:23:49;99403.44;;;9.81;89.55
60852;BME280;48553;50.766;2.900;2022-11-15T12:27:16;99388.19;;;9.80;90.45
60852;BME280;48553;50.766;2.900;2022-11-15T12:30:19;99384.72;;;9.83;89.48
60852;BME280;48553;50.766;2.900;2022-11-15T12:33:46;99364.00;;;9.82;90.54
60852;BME280;48553;50.766;2.900;2022-11-15T12:36:49;99355.44;;;9.83;89.21
60852;BME280;48553;50.766;2.900;2022-11-15T12:43:39;99350.00;;;9.87;89.17
60852;BME280;48553;50.766;2.900;2022-11-15T12:56:21;99328.91;;;9.88;89.39
60852;BME280;48553;50.766;2.900;2022-11-15T12:59:58;99312.13;;;9.89;89.05
60852;BME280;48553;50.766;2.900;2022-11-15T13:03:22;99316.47;;;9.90;89.23
60852;BME280;48553;50.766;2.900;2022-11-15T13:15:58;99292.53;;;9.87;89.67
60852;BME280;48553;50.766;2.900;2022-11-15T13:19:01;99272.59;;;9.87;89.93
60852;BME280;48553;50.766;2.900;2022-11-15T13:22:06;99279.25;;;9.86;90.79
60852;BME280;48553;50.766;2.900;2022-11-15T13:28:47;99256.19;;;9.87;91.20
60852;BME280;48553;50.766;2.900;2022-11-15T13:31:49;99279.25;;;9.86;91.28
60852;BME280;48553;50.766;2.900;2022-11-15T13:34:50;99261.66;;;9.87;90.49
60852;BME280;48553;50.766;2.900;2022-11-15T13:37:54;99256.53;;;9.85;91.39
60852;BME280;48553;50.766;2.900;2022-11-15T13:40:56;99256.19;;;9.87;90.97
60852;BME280;48553;50.766;2.900;2022-11-15T13:43:58;99269.88;;;9.87;90.49
60852;BME280;48553;50.766;2.900;2022-11-15T13:47:16;99269.09;;;9.86;91.24
60852;BME280;48553;50.766;2.900;2022-11-15T13:50:21;99273.03;;;9.89;90.29
60852;BME280;48553;50.766;2.900;2022-11-15T13:53:24;99266.38;;;9.90;90.08
60852;BME280;48553;50.766;2.900;2022-11-15T13:56:25;99257.41;;;9.89;90.16
60852;BME280;48553;50.766;2.900;2022-11-15T13:59:33;99261.66;;;9.87;91.22
60852;BME280;48553;50.766;2.900;2022-11-15T14:02:35;99255.00;;;9.88;91.08
60852;BME280;48553;50.766;2.900;2022-11-15T14:05:36;99244.06;;;9.88;90.98
60852;BME280;48553;50.766;2.900;2022-11-15T14:08:38;99246.81;;;9.88;91.18
60852;BME280;48553;50.766;2.900;2022-11-15T14:11:59;99241.72;;;9.86;91.94
60852;BME280;48553;50.766;2.900;2022-11-15T14:15:25;99236.25;;;9.86;91.92
60852;BME280;48553;50.766;2.900;2022-11-15T14:18:47;99239.75;;;9.87;91.94
60852;BME280;48553;50.766;2.900;2022-11-15T14:22:07;99239.69;;;9.83;93.38
60852;BME280;48553;50.766;2.900;2022-11-15T14:25:23;99229.56;;;9.83;93.18
60852;BME280;48553;50.766;2.900;2022-11-15T14:31:24;99215.91;;;9.87;92.35
60852;BME280;48553;50.766;2.900;2022-11-15T14:34:25;99217.50;;;9.88;92.71
60852;BME280;48553;50.766;2.900;2022-11-15T14:37:29;99212.03;;;9.88;91.66
60852;BME280;48553;50.766;2.900;2022-11-15T14:40:34;99205.41;;;9.89;92.58
60852;BME280;48553;50.766;2.900;2022-11-15T14:43:35;99200.72;;;9.90;92.75
60852;BME280;48553;50.766;2.900;2022-11-15T14:46:35;99189.75;;;9.90;92.18
60852;BME280;48553;50.766;2.900;2022-11-15T14:49:35;99187.41;;;9.88;93.73
60852;BME280;48553;50.766;2.900;2022-11-15T14:52:36;99180.41;;;9.91;92.38
60852;BME280;48553;50.766;2.900;2022-11-15T14:55:36;99173.34;;;9.90;92.97
60852;BME280;48553;50.766;2.900;2022-11-15T14:58:37;99170.25;;;9.91;92.56
60852;BME280;48553;50.766;2.900;2022-11-15T15:01:37;99178.03;;;9.89;93.97
60852;BME280;48553;50.766;2.900;2022-11-15T15:04:38;99178.03;;;9.89;93.60
60852;BME280;48553;50.766;2.900;2022-11-15T15:07:38;99173.34;;;9.90;94.06
60852;BME280;48553;50.766;2.900;2022-11-15T15:10:42;99166.34;;;9.92;92.95
60852;BME280;48553;50.766;2.900;2022-11-15T15:13:42;99165.56;;;9.92;93.65
60852;BME280;48553;50.766;2.900;2022-11-15T15:16:43;99151.50;;;9.93;93.54
60852;BME280;48553;50.766;2.900;2022-11-15T15:19:43;99161.69;;;9.93;93.70
60852;BME280;48553;50.766;2.900;2022-11-15T15:22:44;99157.00;;;9.93;94.30
60852;BME280;48553;50.766;2.900;2022-11-15T15:25:45;99167.19;;;9.96;93.10
60852;BME280;48553;50.766;2.900;2022-11-15T15:28:46;99155.44;;;9.96;94.11
60852;BME280;48553;50.766;2.900;2022-11-15T15:31:48;99154.66;;;9.95;94.10
60852;BME280;48553;50.766;2.900;2022-11-15T15:34:49;99153.91;;;9.98;93.79
60852;BME280;48553;50.766;2.900;2022-11-15T15:37:49;99160.16;;;9.95;94.00
60852;BME280;48553;50.766;2.900;2022-11-15T15:40:51;99161.78;;;10.00;93.01
60852;BME280;48553;50.766;2.900;2022-11-15T15:43:51;99144.19;;;10.01;93.36
60852;BME280;48553;50.766;2.900;2022-11-15T15:46:52;99153.19;;;10.01;93.30
60852;BME280;48553;50.766;2.900;2022-11-15T15:49:52;99151.97;;;9.99;95.42
60852;BME280;48553;50.766;2.900;2022-11-15T15:52:54;99146.88;;;9.97;95.08
60852;BME280;48553;50.766;2.900;2022-11-15T15:55:55;99142.56;;;9.96;95.83
60852;BME280;48553;50.766;2.900;2022-11-15T15:58:56;99135.19;;;10.00;94.35
60852;BME280;48553;50.766;2.900;2022-11-15T16:01:56;99146.56;;;10.02;94.38
60852;BME280;48553;50.766;2.900;2022-11-15T16:04:57;99138.34;;;10.02;94.67
60852;BME280;48553;50.766;2.900;2022-11-15T16:07:57;99121.56;;;10.04;93.95
60852;BME280;48553;50.766;2.900;2022-11-15T16:10:57;99126.22;;;10.03;94.53
60852;BME280;48553;50.766;2.900;2022-11-15T16:13:58;99137.56;;;10.02;95.05
60852;BME280;48553;50.766;2.900;2022-11-15T16:16:59;99139.50;;;10.01;95.34
60852;BME280;48553;50.766;2.900;2022-11-15T16:19:59;99144.66;;;10.07;93.17
60852;BME280;48553;50.766;2.900;2022-11-15T16:23:01;99127.44;;;10.06;93.67
60852;BME280;48553;50.766;2.900;2022-11-15T16:26:02;99121.91;;;10.02;96.13
60852;BME280;48553;50.766;2.900;2022-11-15T16:29:04;99115.69;;;10.06;93.80
60852;BME280;48553;50.766;2.900;2022-11-15T16:32:07;99117.69;;;10.09;93.72
60852;BME280;48553;50.766;2.900;2022-11-15T16:35:10;99120.44;;;10.09;93.51
60852;BME280;48553;50.766;2.900;2022-11-15T16:38:15;99116.53;;;10.10;93.27
60852;BME280;48553;50.766;2.900;2022-11-15T16:41:16;99120.81;;;10.07;94.75
60852;BME280;48553;50.766;2.900;2022-11-15T16:44:18;99121.59;;;10.08;94.04
60852;BME280;48553;50.766;2.900;2022-11-15T16:47:18;99121.97;;;10.06;94.71
60852;BME280;48553;50.766;2.900;2022-11-15T16:50:27;99122.75;;;10.07;94.86
60852;BME280;48553;50.766;2.900;2022-11-15T16:53:27;99112.59;;;10.07;94.21
60852;BME280;48553;50.766;2.900;2022-11-15T16:56:29;99117.69;;;10.09;94.21
60852;BME280;48553;50.766;2.900;2022-11-15T16:59:30;99111.41;;;10.08;94.22
60852;BME280;48553;50.766;2.900;2022-11-15T17:02:32;99107.53;;;10.09;94.34
60852;BME280;48553;50.766;2.900;2022-11-15T17:05:33;99119.25;;;10.10;93.39
60852;BME280;48553;50.766;2.900;2022-11-15T17:08:33;99102.84;;;10.10;93.97
60852;BME280;48553;50.766;2.900;2022-11-15T17:11:34;99090.31;;;10.09;95.10
60852;BME280;48553;50.766;2.900;2022-11-15T17:14:34;99090.75;;;10.11;93.90
60852;BME280;48553;50.766;2.900;2022-11-15T17:17:34;99077.06;;;10.11;93.98
60852;BME280;48553;50.766;2.900;2022-11-15T17:20:35;99080.16;;;10.09;94.43
60852;BME280;48553;50.766;2.900;2022-11-15T17:23:35;99081.34;;;10.12;94.44
60852;BME280;48553;50.766;2.900;2022-11-15T17:26:36;99084.09;;;10.12;93.40
60852;BME280;48553;50.766;2.900;2022-11-15T17:29:37;99080.16;;;10.09;94.33
60852;BME280;48553;50.766;2.900;2022-11-15T17:32:38;99075.47;;;10.10;94.31
60852;BME280;48553;50.766;2.900;2022-11-15T17:35:38;99076.25;;;10.10;94.13
60852;BME280;48553;50.766;2.900;2022-11-15T17:38:42;99071.59;;;10.11;94.53
60852;BME280;48553;50.766;2.900;2022-11-15T17:41:43;99070.41;;;10.12;93.78
60852;BME280;48553;50.766;2.900;2022-11-15T17:44:43;99074.31;;;10.11;94.03
60852;BME280;48553;50.766;2.900;2022-11-15T17:47:43;99075.88;;;10.12;93.38
60852;BME280;48553;50.766;2.900;2022-11-15T17:50:56;99072.78;;;10.13;93.44